Time;durP1;ratioP1;P1;durP2;ratioP2;P2;SDS_P1;SDS_P2;PMS_P1;PMS_P2;Temp;Humidity;BMP_temperature;BMP_pressure;BME280_temperature;BME280_humidity;BME280_pressure;Samples;Min_cycle;Max_cycle;Signal;HPM_P1;HPM_P2
2022/07/26 00:02:12;;;;;;;8.55;2.25;;;;;;;-145.69;70.70;70534.91;5076127;28;20187;-77
2022/07/26 00:04:39;;;;;;;4.88;2.67;;;;;;;-145.69;69.22;70530.94;5076176;28;20202;-77
2022/07/26 00:07:05;;;;;;;4.93;2.10;;;;;;;-145.69;69.76;70524.97;5076161;28;20195;-77
2022/07/26 00:09:32;;;;;;;3.60;2.30;;;;;;;-145.69;70.60;70526.94;5075727;28;20230;-77
2022/07/26 00:12:00;;;;;;;8.30;2.08;;;;;;;-145.69;68.06;70522.97;5075853;28;20210;-77
2022/07/26 00:14:26;;;;;;;7.07;1.98;;;;;;;-145.69;67.44;70513.03;5076145;28;20202;-78
2022/07/26 00:16:53;;;;;;;3.60;2.50;;;;;;;-145.69;68.09;70519.00;5075968;28;20198;-77
2022/07/26 00:19:19;;;;;;;4.85;2.03;;;;;;;-145.69;69.23;70524.97;5075829;28;20195;-77
2022/07/26 00:21:45;;;;;;;3.97;1.90;;;;;;;-145.69;68.45;70520.97;5075781;28;20654;-77
2022/07/26 00:24:12;;;;;;;7.38;2.00;;;;;;;-145.69;68.58;70526.94;5075311;28;20199;-77
2022/07/26 00:26:38;;;;;;;6.10;2.17;;;;;;;-145.69;68.52;70520.97;5075536;28;20199;-78
2022/07/26 00:29:06;;;;;;;4.95;2.03;;;;;;;-145.69;68.43;70526.94;5075744;28;20222;-76
2022/07/26 00:31:33;;;;;;;8.07;1.65;;;;;;;-145.69;68.82;70534.91;5075414;28;20658;-78
2022/07/26 00:33:59;;;;;;;6.63;2.15;;;;;;;-145.69;68.90;70534.91;5075558;28;20530;-77
2022/07/26 00:36:27;;;;;;;8.05;1.65;;;;;;;-145.69;69.03;70538.88;5075540;28;20199;-77
2022/07/26 00:38:53;;;;;;;6.00;1.92;;;;;;;-145.69;69.29;70542.88;5075388;28;20203;-77
2022/07/26 00:41:20;;;;;;;5.47;1.77;;;;;;;-145.69;69.72;70538.88;5075077;28;20554;-76
2022/07/26 00:43:57;;;;;;;3.30;1.50;;;;;;;-145.69;70.05;70526.94;5075278;28;20202;-77
2022/07/26 00:46:25;;;;;;;6.65;1.48;;;;;;;-145.69;71.05;70538.88;5075003;28;20194;-77
2022/07/26 00:48:52;;;;;;;5.25;1.45;;;;;;;-145.69;70.56;70544.84;5074916;28;20230;-78
2022/07/26 00:51:20;;;;;;;7.32;1.98;;;;;;;-145.69;71.37;70550.81;5074226;28;20206;-78
2022/07/26 00:53:47;;;;;;;7.32;1.40;;;;;;;-145.69;70.60;70546.84;5074697;28;20607;-78
2022/07/26 00:56:14;;;;;;;3.13;1.58;;;;;;;-145.69;71.40;70546.84;5075273;28;20320;-77
2022/07/26 00:58:41;;;;;;;5.15;1.63;;;;;;;-145.69;71.81;70554.81;5074990;28;20268;-77
2022/07/26 01:01:07;;;;;;;6.65;1.52;;;;;;;-145.69;72.20;70558.78;5074949;28;20585;-78
2022/07/26 01:03:35;;;;;;;3.95;1.30;;;;;;;-145.69;72.49;70550.81;5074955;28;20199;-78
2022/07/26 01:06:02;;;;;;;3.67;1.33;;;;;;;-145.69;72.41;70564.75;5075118;28;20207;-77
2022/07/26 01:08:29;;;;;;;5.35;1.60;;;;;;;-145.69;72.44;70570.72;5073628;28;20577;-78
2022/07/26 01:10:55;;;;;;;4.10;1.40;;;;;;;-145.69;73.18;70574.69;5056461;28;20918;-77
2022/07/26 01:13:22;;;;;;;2.25;1.30;;;;;;;-145.69;73.25;70574.69;5054957;28;20204;-77
2022/07/26 01:15:49;;;;;;;3.80;1.20;;;;;;;-145.69;72.51;70566.75;5061634;28;20203;-77
2022/07/26 01:18:16;;;;;;;2.60;1.38;;;;;;;-145.69;73.42;70568.72;5054710;28;20208;-77
2022/07/26 01:20:45;;;;;;;7.45;1.55;;;;;;;-145.69;73.14;70568.72;5054857;28;20208;-77
2022/07/26 01:23:13;;;;;;;5.20;1.63;;;;;;;-145.69;73.74;70570.72;5063433;28;20203;-77
2022/07/26 01:25:40;;;;;;;2.35;1.48;;;;;;;-145.69;73.52;70564.75;5069382;28;20653;-77
2022/07/26 01:28:06;;;;;;;9.07;1.50;;;;;;;-145.69;73.80;70576.69;5055170;28;20219;-77
2022/07/26 01:30:33;;;;;;;4.53;1.35;;;;;;;-145.69;74.78;70586.63;5054469;28;20222;-78
2022/07/26 01:32:59;;;;;;;1.73;1.13;;;;;;;-145.69;75.57;70590.63;5054403;28;20207;-77
2022/07/26 01:35:25;;;;;;;6.18;1.63;;;;;;;-145.69;75.09;70588.63;5054612;28;20543;-77
2022/07/26 01:37:52;;;;;;;4.63;1.40;;;;;;;-145.69;75.25;70596.59;5054487;28;20200;-78
2022/07/26 01:40:20;;;;;;;1.90;1.15;;;;;;;-145.69;74.95;70588.63;5054463;28;20226;-77
2022/07/26 01:42:47;;;;;;;6.13;1.40;;;;;;;-145.69;75.69;70596.59;5054372;28;20222;-77
2022/07/26 01:45:13;;;;;;;2.75;1.30;;;;;;;-145.69;76.71;70610.50;5063635;28;20202;-78
2022/07/26 01:47:40;;;;;;;4.00;1.10;;;;;;;-145.69;77.07;70614.47;5074091;28;20600;-77
2022/07/26 01:50:08;;;;;;;6.43;1.10;;;;;;;-145.69;77.17;70620.44;5073843;28;20242;-78
2022/07/26 01:52:34;;;;;;;1.40;1.17;;;;;;;-145.69;77.57;70624.44;5074230;28;20209;-78
2022/07/26 01:55:01;;;;;;;13.05;1.52;;;;;;;-145.69;77.85;70640.34;5073958;28;20202;-77
2022/07/26 01:57:29;;;;;;;2.47;1.30;;;;;;;-145.69;77.91;70634.38;5073949;28;20213;-78
2022/07/26 01:59:55;;;;;;;8.65;1.23;;;;;;;-145.69;77.61;70634.38;5073519;28;20210;-78
2022/07/26 02:02:22;;;;;;;5.63;1.40;;;;;;;-145.69;78.18;70634.38;5073901;28;20202;-77
2022/07/26 02:05:00;;;;;;;3.97;1.35;;;;;;;-145.69;78.09;70642.34;5073428;28;20669;-78
2022/07/26 02:07:28;;;;;;;7.35;1.40;;;;;;;-145.69;78.43;70648.31;5073759;28;20660;-78
2022/07/26 02:09:54;;;;;;;1.80;0.98;;;;;;;-145.69;78.73;70650.28;5073799;28;20226;-77
2022/07/26 02:12:21;;;;;;;3.45;1.35;;;;;;;-145.69;78.97;70642.34;5073655;28;20203;-77
2022/07/26 02:14:49;;;;;;;2.28;1.15;;;;;;;-145.69;79.30;70650.28;5073022;28;20202;-77
2022/07/26 02:17:16;;;;;;;1.80;1.20;;;;;;;-145.69;78.63;70640.34;5073567;28;20199;-77
2022/07/26 02:19:42;;;;;;;2.47;1.25;;;;;;;-145.69;79.02;70638.34;5073550;28;20198;-78
2022/07/26 02:22:09;;;;;;;2.55;1.50;;;;;;;-145.69;80.38;70644.31;5073653;28;20209;-78
2022/07/26 02:24:36;;;;;;;1.95;1.13;;;;;;;-145.69;79.66;70658.25;5073395;28;20206;-78
2022/07/26 02:27:03;;;;;;;2.28;1.23;;;;;;;-145.69;81.31;70656.25;5073061;28;20234;-77
2022/07/26 02:29:30;;;;;;;2.88;1.23;;;;;;;-145.69;80.76;70658.25;5073553;28;20230;-77
2022/07/26 02:31:58;;;;;;;1.90;1.23;;;;;;;-145.69;80.39;70658.25;5073404;28;20229;-76
2022/07/26 02:34:24;;;;;;;1.35;1.25;;;;;;;-145.69;79.90;70660.25;5073181;28;20570;-76
2022/07/26 02:36:51;;;;;;;3.60;1.23;;;;;;;-145.69;81.50;70662.22;5073387;28;20535;-75
2022/07/26 02:39:18;;;;;;;1.80;1.13;;;;;;;-145.69;82.06;70680.13;5073189;28;20199;-76
2022/07/26 02:41:44;;;;;;;6.10;1.52;;;;;;;-145.69;83.43;70686.09;5073129;28;20234;-76
2022/07/26 02:44:11;;;;;;;1.30;0.98;;;;;;;-145.69;83.40;70688.09;5073558;28;20221;-76
2022/07/26 02:46:37;;;;;;;3.00;1.30;;;;;;;-145.69;84.43;70686.09;5073395;28;20195;-76
2022/07/26 02:49:05;;;;;;;4.10;1.23;;;;;;;-145.69;82.25;70682.13;5072948;28;20230;-76
2022/07/26 02:51:31;;;;;;;7.22;1.20;;;;;;;-145.69;81.49;70686.09;5073115;28;20654;-76
2022/07/26 02:53:58;;;;;;;3.30;1.20;;;;;;;-145.69;81.63;70678.16;5073130;28;20252;-76
2022/07/26 02:56:24;;;;;;;5.03;1.38;;;;;;;-145.69;83.02;70682.13;5073055;28;20206;-75
2022/07/26 02:58:51;;;;;;;3.72;1.20;;;;;;;-145.69;83.08;70678.16;5072333;28;20924;-76
2022/07/26 03:01:17;;;;;;;3.63;1.20;;;;;;;-145.69;81.40;70674.16;5072981;28;20201;-76
2022/07/26 03:03:44;;;;;;;2.80;1.48;;;;;;;-145.69;83.01;70680.13;5068449;28;20202;-76
2022/07/26 03:06:11;;;;;;;1.48;1.13;;;;;;;-145.69;82.18;70686.09;5073023;28;20202;-76
2022/07/26 03:08:38;;;;;;;2.13;1.20;;;;;;;-145.69;81.89;70692.06;5072742;28;20206;-76
2022/07/26 03:11:05;;;;;;;2.50;1.10;;;;;;;-145.69;82.95;70698.03;5073016;28;20233;-75
2022/07/26 03:13:32;;;;;;;3.08;1.23;;;;;;;-145.69;83.16;70706.00;5072996;28;20195;-76
2022/07/26 03:15:58;;;;;;;1.60;1.30;;;;;;;-145.69;84.09;70713.97;5072081;28;20564;-75
2022/07/26 03:18:25;;;;;;;1.88;1.17;;;;;;;-145.69;82.60;70708.00;5052761;28;20192;-76
2022/07/26 03:20:51;;;;;;;3.08;1.35;;;;;;;-145.69;83.38;70713.97;5052616;28;20199;-76
2022/07/26 03:23:19;;;;;;;4.57;1.45;;;;;;;-145.69;83.21;70713.97;5052290;28;20207;-76
2022/07/26 03:25:45;;;;;;;2.22;1.20;;;;;;;-145.69;82.99;70717.94;5052865;28;20202;-76
2022/07/26 03:28:12;;;;;;;2.20;0.90;;;;;;;-145.69;83.55;70731.88;5058289;28;20584;-75
2022/07/26 03:30:38;;;;;;;2.13;1.08;;;;;;;-145.69;84.56;70737.84;5072657;28;20363;-76
2022/07/26 03:33:05;;;;;;;4.03;1.17;;;;;;;-145.69;83.68;70729.88;5072758;28;20206;-76
2022/07/26 03:35:31;;;;;;;3.60;1.23;;;;;;;-145.69;83.92;70733.84;5072018;28;20445;-76
2022/07/26 03:37:57;;;;;;;1.90;1.20;;;;;;;-145.69;84.01;70737.84;5072476;28;20202;-75
2022/07/26 03:40:25;;;;;;;1.40;1.10;;;;;;;-145.69;84.90;70747.78;5072585;28;20543;-76
2022/07/26 03:42:52;;;;;;;1.52;1.17;;;;;;;-145.69;86.04;70753.75;5072606;28;20199;-75
2022/07/26 03:45:18;;;;;;;2.63;1.10;;;;;;;-145.69;85.97;70757.72;5072662;28;20206;-75
2022/07/26 03:47:45;;;;;;;5.30;1.42;;;;;;;-145.69;87.27;70757.72;5072463;28;20559;-76
2022/07/26 03:50:12;;;;;;;2.45;1.10;;;;;;;-145.69;86.56;70753.75;5072280;28;20281;-76
2022/07/26 03:52:39;;;;;;;1.75;1.10;;;;;;;-145.69;87.04;70757.72;5072321;28;20202;-76
2022/07/26 03:57:49;;;;;;;3.22;1.40;;;;;;;-145.69;86.43;70763.69;5072139;28;20205;-76
2022/07/26 04:00:15;;;;;;;2.63;1.20;;;;;;;-145.69;87.34;70761.72;5072374;28;20238;-77
2022/07/26 04:02:41;;;;;;;2.25;1.20;;;;;;;-145.69;88.18;70765.69;5072221;28;20557;-76
2022/07/26 04:05:09;;;;;;;3.03;1.40;;;;;;;-145.69;87.75;70759.72;5072369;28;20654;-76
2022/07/26 04:07:41;;;;;;;3.28;1.23;;;;;;;-145.69;87.97;70753.75;5072457;28;20243;-76
2022/07/26 04:10:08;;;;;;;4.38;1.40;;;;;;;-145.69;88.29;70757.72;5072266;28;20596;-76
2022/07/26 04:12:35;;;;;;;2.72;1.45;;;;;;;-145.69;88.70;70765.69;5072289;28;20556;-76
2022/07/26 04:15:03;;;;;;;5.72;1.38;;;;;;;-145.69;88.88;70765.69;5072285;28;20199;-76
2022/07/26 04:17:31;;;;;;;4.85;1.50;;;;;;;-145.69;88.63;70765.69;5072129;28;20602;-76
2022/07/26 04:19:58;;;;;;;4.57;1.40;;;;;;;-145.69;88.89;70771.66;5072206;28;20285;-76
2022/07/26 04:22:24;;;;;;;3.08;1.25;;;;;;;-145.69;88.72;70769.66;5072162;28;20198;-76
2022/07/26 04:24:51;;;;;;;1.98;1.17;;;;;;;-145.69;89.44;70765.69;5071960;28;20199;-76
2022/07/26 04:27:18;;;;;;;4.28;1.38;;;;;;;-145.69;89.63;70767.69;5072580;28;20206;-76
2022/07/26 04:29:45;;;;;;;1.83;1.25;;;;;;;-145.69;88.87;70767.69;5075575;28;20227;-76
2022/07/26 04:32:12;;;;;;;2.28;1.25;;;;;;;-145.69;89.09;70763.69;5075542;28;20650;-76
2022/07/26 04:34:39;;;;;;;2.10;1.30;;;;;;;-145.69;89.32;70763.69;5075423;28;20202;-76
2022/07/26 04:37:05;;;;;;;3.03;1.15;;;;;;;-145.69;89.18;70765.69;5075653;28;20268;-76
2022/07/26 04:39:31;;;;;;;5.15;1.35;;;;;;;-145.69;88.69;70763.69;5075387;28;20195;-76
2022/07/26 04:41:58;;;;;;;1.75;1.23;;;;;;;-145.69;88.16;70759.72;5075531;28;20206;-76
2022/07/26 04:44:24;;;;;;;3.20;1.50;;;;;;;-145.69;88.75;70761.72;5075483;28;20207;-76
2022/07/26 04:46:51;;;;;;;4.03;1.10;;;;;;;-145.69;88.15;70753.75;5075389;28;20209;-76
2022/07/26 04:49:18;;;;;;;2.70;1.17;;;;;;;-145.69;87.79;70749.78;5075313;28;20230;-75
2022/07/26 04:51:45;;;;;;;2.75;1.33;;;;;;;-145.69;88.12;70739.81;5075496;28;20199;-76
2022/07/26 04:54:11;;;;;;;2.97;1.58;;;;;;;-145.69;87.70;70739.81;5074590;28;20199;-75
2022/07/26 04:56:38;;;;;;;4.72;1.35;;;;;;;-145.69;86.69;70727.88;5074862;28;20660;-75
2022/07/26 04:59:04;;;;;;;3.85;1.52;;;;;;;-145.69;86.83;70731.88;5074491;28;20206;-76
2022/07/26 05:01:31;;;;;;;6.35;1.40;;;;;;;-145.69;87.92;70725.91;5074922;28;20662;-76
2022/07/26 05:03:57;;;;;;;2.63;1.30;;;;;;;-145.69;86.68;70729.88;5057480;28;20199;-77
2022/07/26 05:06:25;;;;;;;3.53;1.67;;;;;;;-145.69;87.19;70731.88;5055144;28;20597;-76
2022/07/26 05:08:51;;;;;;;3.97;1.40;;;;;;;-145.69;86.63;70727.88;5055059;28;20207;-77
2022/07/26 05:11:17;;;;;;;2.50;1.20;;;;;;;-145.69;86.75;70717.94;5054861;28;20231;-76
2022/07/26 05:13:44;;;;;;;2.92;1.80;;;;;;;-145.69;86.92;70709.97;5054718;28;20571;-76
2022/07/26 05:16:10;;;;;;;2.72;1.45;;;;;;;-145.69;86.37;70715.94;5055054;28;20840;-76
2022/07/26 05:18:37;;;;;;;1.73;1.30;;;;;;;-145.69;87.63;70735.84;5074616;28;20210;-76
2022/07/26 05:21:03;;;;;;;2.33;1.50;;;;;;;-145.69;88.55;70735.84;5074782;28;20585;-75
2022/07/26 05:23:31;;;;;;;4.55;1.55;;;;;;;-145.69;87.33;70721.91;5074734;28;20256;-75
2022/07/26 05:25:58;;;;;;;1.75;1.50;;;;;;;-145.69;88.70;70708.00;5074744;28;20206;-75
2022/07/26 05:28:24;;;;;;;2.22;1.30;;;;;;;-145.69;86.19;70702.03;5074700;28;20199;-76
2022/07/26 05:30:51;;;;;;;4.78;1.35;;;;;;;-145.69;86.78;70686.09;5073996;28;20226;-75
2022/07/26 05:33:17;;;;;;;4.43;1.65;;;;;;;-145.69;87.68;70686.09;5074651;28;20206;-76
2022/07/26 05:35:44;;;;;;;2.17;1.45;;;;;;;-145.69;87.21;70680.13;5074605;28;20198;-76
2022/07/26 05:38:11;;;;;;;3.92;1.55;;;;;;;-145.69;84.58;70686.09;5073978;28;20199;-76
2022/07/26 05:40:38;;;;;;;6.03;1.90;;;;;;;-145.69;84.29;70676.16;5074346;28;20229;-76
2022/07/26 05:43:05;;;;;;;4.45;1.20;;;;;;;-145.69;84.38;70662.22;5074529;28;20569;-76
2022/07/26 05:45:31;;;;;;;2.45;1.02;;;;;;;-145.69;85.02;70664.22;5074443;28;20198;-76
2022/07/26 05:47:58;;;;;;;2.78;1.38;;;;;;;-145.69;84.12;70650.28;5073899;28;20195;-76
2022/07/26 05:50:24;;;;;;;6.15;1.52;;;;;;;-145.69;84.13;70640.34;5074092;28;20700;-76
2022/07/26 05:52:50;;;;;;;1.60;1.40;;;;;;;-145.69;85.23;70664.22;5073647;28;20653;-76
2022/07/26 05:55:17;;;;;;;8.02;1.23;;;;;;;-145.69;84.44;70678.16;5073906;28;20206;-76
2022/07/26 05:57:46;;;;;;;7.57;1.67;;;;;;;-145.69;85.21;70690.09;5074006;28;20256;-76
2022/07/26 06:00:13;;;;;;;2.67;1.52;;;;;;;-145.69;85.01;70698.03;5073811;28;20220;-76
2022/07/26 06:02:40;;;;;;;6.35;1.48;;;;;;;-145.69;85.80;70717.94;5073969;28;20202;-77
2022/07/26 06:05:07;;;;;;;3.70;1.90;;;;;;;-145.69;86.58;70717.94;5074025;28;20195;-77
2022/07/26 06:07:34;;;;;;;2.20;1.60;;;;;;;-145.69;85.63;70709.97;5073845;28;20202;-76
2022/07/26 06:10:01;;;;;;;2.50;1.52;;;;;;;-145.69;85.08;70678.16;5073681;28;20198;-76
2022/07/26 06:12:27;;;;;;;2.05;1.50;;;;;;;-145.69;83.31;70656.25;5073320;28;20669;-77
2022/07/26 06:14:55;;;;;;;1.77;1.30;;;;;;;-145.69;82.19;70634.38;5073692;28;20205;-76
2022/07/26 06:17:21;;;;;;;5.47;1.42;;;;;;;-145.69;81.01;70616.47;5073564;28;20217;-76
2022/07/26 06:19:48;;;;;;;4.97;1.50;;;;;;;-145.69;81.40;70638.34;5073097;28;20221;-76
2022/07/26 06:22:15;;;;;;;4.10;1.80;;;;;;;-145.69;80.16;70622.44;5073418;28;20198;-76
2022/07/26 06:24:42;;;;;;;3.95;1.75;;;;;;;-145.69;78.53;70566.75;5072863;28;20240;-77
2022/07/26 06:27:08;;;;;;;7.68;1.83;;;;;;;-145.69;76.98;70528.94;5072979;28;20190;-77
2022/07/26 06:29:34;;;;;;;3.70;1.58;;;;;;;-145.69;77.66;70522.97;5073170;28;20550;-78
2022/07/26 06:32:02;;;;;;;4.30;1.58;;;;;;;-145.69;75.03;70538.88;5073362;28;20227;-78
2022/07/26 06:34:29;;;;;;;3.20;1.65;;;;;;;-145.69;75.73;70542.88;5073334;28;20207;-77
2022/07/26 06:36:55;;;;;;;2.42;1.50;;;;;;;-145.69;75.87;70546.84;5073305;28;20194;-77
2022/07/26 06:39:22;;;;;;;2.38;1.70;;;;;;;-145.69;75.65;70564.75;5073170;28;20202;-77
2022/07/26 06:41:48;;;;;;;4.53;1.40;;;;;;;-145.69;78.28;70586.63;5073405;28;20205;-77
2022/07/26 06:44:15;;;;;;;7.25;1.92;;;;;;;-145.69;78.71;70586.63;5073304;28;20557;-78
2022/07/26 06:46:41;;;;;;;6.30;1.52;;;;;;;-145.69;79.06;70582.66;5072653;28;20195;-77
2022/07/26 06:49:09;;;;;;;3.55;1.70;;;;;;;-145.69;79.53;70586.63;5072010;28;20237;-77
2022/07/26 06:51:36;;;;;;;3.90;1.65;;;;;;;-145.69;79.25;70586.63;5072010;28;20226;-77
2022/07/26 06:54:04;;;;;;;1.70;1.50;;;;;;;-145.69;79.19;70562.75;5072578;28;20199;-77
2022/07/26 06:56:31;;;;;;;3.70;1.58;;;;;;;-145.69;76.80;70509.03;5072938;28;20203;-78
2022/07/26 06:58:57;;;;;;;3.30;1.67;;;;;;;-145.69;77.73;70532.91;5072772;28;20235;-76
2022/07/26 07:01:24;;;;;;;4.68;2.00;;;;;;;-145.69;76.53;70513.03;5072165;28;20187;-76
2022/07/26 07:03:50;;;;;;;2.00;1.50;;;;;;;-145.69;75.48;70497.09;5055125;28;20218;-75
2022/07/26 07:06:18;;;;;;;4.85;1.90;;;;;;;-145.69;77.63;70594.59;5066462;28;20195;-76
2022/07/26 07:08:44;;;;;;;3.15;1.90;;;;;;;-145.69;76.99;70562.75;5071219;28;20199;-76
2022/07/26 07:11:11;;;;;;;5.55;1.63;;;;;;;-145.69;78.78;70580.66;5072626;28;20234;-77
2022/07/26 07:13:37;;;;;;;3.20;1.65;;;;;;;-145.69;78.80;70578.69;5072756;28;20393;-76
2022/07/26 07:16:04;;;;;;;4.00;2.00;;;;;;;-145.69;77.99;70568.72;5072617;28;20566;-75
2022/07/26 07:18:31;;;;;;;3.60;1.80;;;;;;;-145.69;76.08;70534.91;5072412;28;20190;-75
2022/07/26 07:20:57;;;;;;;3.63;1.88;;;;;;;-145.69;74.63;70519.00;5072691;28;20206;-75
2022/07/26 07:23:25;;;;;;;3.67;1.80;;;;;;;-145.69;73.37;70499.09;5072161;28;20194;-75
2022/07/26 07:25:51;;;;;;;2.58;1.63;;;;;;;-145.69;76.51;70515.00;5072848;28;20206;-75
2022/07/26 07:28:18;;;;;;;4.32;1.80;;;;;;;-145.69;72.66;70485.16;5072491;28;20554;-76
2022/07/26 07:30:46;;;;;;;6.65;1.73;;;;;;;-145.69;72.73;70489.16;5071936;28;20249;-78
2022/07/26 07:33:13;;;;;;;4.80;1.75;;;;;;;-145.69;75.65;70524.97;5072188;28;20195;-75
2022/07/26 07:35:40;;;;;;;3.58;1.80;;;;;;;-145.69;76.54;70526.94;5072068;28;20517;-76
2022/07/26 07:38:07;;;;;;;6.95;2.15;;;;;;;-145.69;74.73;70481.19;5072485;28;20203;-76
2022/07/26 07:40:35;;;;;;;5.05;1.77;;;;;;;-145.69;72.97;70485.16;5072772;28;20264;-75
2022/07/26 07:43:01;;;;;;;5.78;1.95;;;;;;;-145.69;72.50;70503.06;5072061;28;20198;-75
2022/07/26 07:45:28;;;;;;;6.38;2.00;;;;;;;-145.69;72.36;70515.00;5072096;28;20209;-75
2022/07/26 07:47:54;;;;;;;7.43;1.80;;;;;;;-145.69;73.77;70540.88;5072179;28;20195;-77
2022/07/26 07:50:21;;;;;;;3.47;1.73;;;;;;;-145.69;73.97;70610.50;5071688;28;20223;-75
2022/07/26 07:52:47;;;;;;;10.45;1.98;;;;;;;-145.69;76.97;70606.53;5072639;28;20199;-75
2022/07/26 07:55:14;;;;;;;8.90;1.65;;;;;;;-145.69;73.14;70606.53;5070239;28;20531;-75
2022/07/26 07:57:41;;;;;;;4.43;1.80;;;;;;;-145.69;71.32;70570.72;5067569;28;20195;-75
2022/07/26 08:00:11;;;;;;;4.10;1.50;;;;;;;-145.69;70.44;70576.69;5071991;28;20206;-74
2022/07/26 08:02:37;;;;;;;3.47;1.60;;;;;;;-145.69;68.35;70524.97;5075565;28;20668;-75
2022/07/26 08:05:06;;;;;;;6.55;1.73;;;;;;;-145.69;65.78;70409.56;5075744;28;20202;-75
2022/07/26 08:07:33;;;;;;;4.72;1.77;;;;;;;-145.69;63.14;70332.00;5075446;28;20195;-74
2022/07/26 08:09:59;;;;;;;3.92;1.50;;;;;;;-145.69;62.53;70379.72;5076145;28;20198;-75
2022/07/26 08:12:26;;;;;;;5.63;1.65;;;;;;;-145.69;61.80;70463.28;5075244;28;20226;-75
2022/07/26 08:14:54;;;;;;;4.15;1.92;;;;;;;-145.69;63.08;70459.31;5075527;28;20218;-75
2022/07/26 08:17:20;;;;;;;5.15;1.58;;;;;;;-145.69;63.96;70493.13;5075535;28;20542;-74
2022/07/26 08:19:46;;;;;;;4.57;1.65;;;;;;;-145.69;65.66;70515.00;5075523;28;20688;-75
2022/07/26 08:22:13;;;;;;;5.67;1.60;;;;;;;-145.69;64.55;70497.09;5074758;28;20442;-75
2022/07/26 08:24:39;;;;;;;5.40;1.50;;;;;;;-145.69;62.77;70447.38;5075601;28;20502;-75
2022/07/26 08:27:06;;;;;;;3.00;1.40;;;;;;;-145.69;58.81;70463.28;5074968;28;20657;-75
2022/07/26 08:29:33;;;;;;;4.15;1.50;;;;;;;-145.69;58.96;70459.31;5075194;28;20215;-75
2022/07/26 08:32:01;;;;;;;3.20;1.35;;;;;;;-145.69;59.08;70415.53;5075520;28;20222;-77
2022/07/26 08:34:27;;;;;;;8.95;1.33;;;;;;;-145.69;56.16;70429.47;5075450;28;20194;-74
2022/07/26 08:36:53;;;;;;;7.35;1.73;;;;;;;-145.69;56.08;70387.69;5075271;28;20194;-75
2022/07/26 08:39:20;;;;;;;6.22;1.10;;;;;;;-145.69;55.87;70367.81;5074895;28;20209;-75
2022/07/26 08:41:46;;;;;;;3.83;1.35;;;;;;;-145.69;57.25;70375.75;5074649;28;20205;-76
2022/07/26 08:44:13;;;;;;;2.17;1.00;;;;;;;-145.69;55.03;70373.78;5075220;28;20195;-75
2022/07/26 08:46:40;;;;;;;2.80;1.23;;;;;;;-145.69;55.21;70403.59;5075324;28;20206;-76
2022/07/26 08:49:10;;;;;;;2.95;1.30;;;;;;;-145.69;56.58;70451.34;5075223;28;20235;-74
2022/07/26 08:51:38;;;;;;;2.88;1.27;;;;;;;-145.69;56.22;70493.13;5075261;28;20234;-77
2022/07/26 08:54:05;;;;;;;5.10;1.20;;;;;;;-145.69;58.14;70483.19;5075297;28;20210;-75
2022/07/26 08:56:33;;;;;;;5.00;1.40;;;;;;;-145.69;54.56;70455.34;5078307;28;20197;-74
2022/07/26 08:59:02;;;;;;;3.58;1.23;;;;;;;-145.69;54.01;70459.31;5093307;28;20198;-74
2022/07/26 09:01:28;;;;;;;1.85;1.00;;;;;;;-145.69;52.19;70403.59;5070832;28;20315;-74
2022/07/26 09:03:54;;;;;;;1.75;1.02;;;;;;;-145.69;51.10;70359.84;5067237;28;20195;-74
2022/07/26 09:06:24;;;;;;;4.45;1.20;;;;;;;-145.69;49.65;70341.94;5074993;28;20199;-78
2022/07/26 09:08:52;;;;;;;5.15;1.30;;;;;;;-145.69;50.20;70341.94;5074841;28;20199;-76
2022/07/26 09:11:27;;;;;;;3.10;1.30;;;;;;;-145.69;47.96;70318.06;5074672;28;20597;-77
2022/07/26 09:13:56;;;;;;;6.28;1.13;;;;;;;-145.69;47.98;70264.34;5073893;28;20233;-77
2022/07/26 09:16:23;;;;;;;2.80;1.30;;;;;;;-145.69;47.68;70232.53;5074786;28;20205;-78
2022/07/26 09:18:50;;;;;;;7.55;1.13;;;;;;;-145.69;46.64;70284.25;5074839;28;20256;-77
2022/07/26 09:21:28;;;;;;;2.75;1.10;;;;;;;-145.69;46.99;70232.53;5074654;28;20207;-77
2022/07/26 09:23:55;;;;;;;4.10;1.35;;;;;;;-145.69;45.45;70240.47;5074784;28;20205;-78
2022/07/26 09:26:21;;;;;;;3.45;0.90;;;;;;;-145.69;45.18;70240.47;5074789;28;20199;-78
2022/07/26 09:29:01;;;;;;;4.22;1.00;;;;;;;-145.69;46.28;70278.28;5074396;28;20202;-78
2022/07/26 09:31:28;;;;;;;3.78;1.10;;;;;;;-145.69;47.94;70316.06;5074616;28;20318;-78
2022/07/26 09:33:54;;;;;;;6.97;1.10;;;;;;;-145.69;45.95;70322.03;5073477;28;20437;-79
2022/07/26 09:36:21;;;;;;;4.72;1.00;;;;;;;-145.69;47.12;70328.00;5074231;28;20576;-77
2022/07/26 09:38:51;;;;;;;2.35;1.10;;;;;;;-145.69;46.54;70304.13;5074366;28;20237;-77
2022/07/26 09:41:19;;;;;;;6.20;1.20;;;;;;;-145.69;45.19;70210.66;5074075;28;20592;-78
2022/07/26 09:43:45;;;;;;;2.13;0.77;;;;;;;-145.69;44.17;70190.75;5074350;28;20225;-78
2022/07/26 09:46:12;;;;;;;2.22;1.00;;;;;;;-145.69;44.02;70320.06;5074326;28;20220;-79
2022/07/26 09:48:39;;;;;;;2.40;0.90;;;;;;;-145.69;45.32;70383.72;5073792;28;20293;-78
2022/07/26 09:51:05;;;;;;;5.25;1.00;;;;;;;-145.69;48.18;70421.50;5074264;28;20254;-82
2022/07/26 09:53:39;;;;;;;2.70;0.70;;;;;;;-145.69;46.49;70373.78;5074295;28;20198;-78
2022/07/26 09:56:08;;;;;;;2.40;0.98;;;;;;;-145.69;46.56;70268.34;5074165;28;20234;-78
2022/07/26 09:58:35;;;;;;;5.55;1.20;;;;;;;-145.69;43.46;70272.31;5074098;28;20605;-79
2022/07/26 10:01:02;;;;;;;4.57;1.00;;;;;;;-145.69;43.84;70328.00;5073950;28;20202;-79
2022/07/26 10:03:29;;;;;;;1.50;0.80;;;;;;;-145.69;44.78;70395.66;5073853;28;20202;-80
2022/07/26 10:05:57;;;;;;;2.80;0.95;;;;;;;-145.69;45.65;70353.88;5075121;28;20244;-78
2022/07/26 10:08:23;;;;;;;5.10;1.50;;;;;;;-145.69;44.84;70330.00;5073714;28;20225;-77
2022/07/26 10:10:54;;;;;;;4.75;1.63;;;;;;;-145.69;45.99;70328.00;5073779;28;20592;-78
2022/07/26 10:13:23;;;;;;;3.78;1.13;;;;;;;-145.69;45.84;70339.94;5073708;28;20315;-77
2022/07/26 10:15:51;;;;;;;2.30;0.98;;;;;;;-145.69;46.08;70322.03;5073564;28;20293;-78
2022/07/26 10:18:42;;;;;;;3.72;1.10;;;;;;;-145.69;45.78;70345.91;5073788;28;20206;-77
2022/07/26 10:21:20;;;;;;;1.73;1.00;;;;;;;-145.69;46.47;70280.28;5073791;28;20230;-78
2022/07/26 10:23:48;;;;;;;3.60;1.27;;;;;;;-145.69;43.20;70296.19;5073462;28;20201;-79
2022/07/26 10:26:36;;;;;;;1.45;0.98;;;;;;;-145.69;43.85;70278.28;5073392;28;20195;-78
2022/07/26 10:29:26;;;;;;;2.45;1.15;;;;;;;-145.69;45.26;70300.16;5073473;28;20557;-80
2022/07/26 10:32:19;;;;;;;3.67;1.10;;;;;;;-145.69;48.77;70399.63;5073471;28;20226;-78
2022/07/26 10:34:46;;;;;;;7.65;1.52;;;;;;;-145.69;49.58;70427.47;5073283;28;20302;-77
2022/07/26 10:37:22;;;;;;;3.70;1.17;;;;;;;-145.69;48.27;70387.69;5073404;28;20657;-78
2022/07/26 10:39:48;;;;;;;2.17;0.93;;;;;;;-145.69;46.20;70339.94;5073524;28;20226;-83
2022/07/26 10:42:15;;;;;;;3.00;0.90;;;;;;;-145.69;45.72;70351.88;5073302;28;20202;-79
2022/07/26 10:44:44;;;;;;;2.55;1.20;;;;;;;-145.69;45.83;70314.09;5073668;28;20210;-80
2022/07/26 10:47:14;;;;;;;2.72;1.00;;;;;;;-145.69;43.26;70306.13;5073169;28;20226;-77
2022/07/26 10:49:44;;;;;;;3.67;0.90;;;;;;;-145.69;45.34;70326.03;5073142;28;20231;-78
2022/07/26 10:52:16;;;;;;;5.85;1.10;;;;;;;-145.69;45.36;70272.31;5073146;28;20230;-78
2022/07/26 10:55:18;;;;;;;2.55;0.95;;;;;;;-145.69;43.69;70234.50;5073166;28;20201;-81
2022/07/26 10:57:47;;;;;;;4.05;0.90;;;;;;;-145.69;44.85;70290.22;5056211;28;20601;-77
2022/07/26 11:00:18;;;;;;;4.90;1.13;;;;;;;-145.69;43.88;70332.00;5053090;28;20286;-77
2022/07/26 11:02:48;;;;;;;1.67;0.90;;;;;;;-145.69;43.66;70302.16;5053104;28;20203;-78
2022/07/26 11:05:17;;;;;;;2.45;1.10;;;;;;;-145.69;44.85;70252.41;5052955;28;20196;-78
2022/07/26 11:07:56;;;;;;;3.22;0.80;;;;;;;-145.69;45.09;70282.25;5052889;28;20496;-78
2022/07/26 11:10:25;;;;;;;3.25;1.10;;;;;;;-145.69;45.19;70288.22;5053070;28;20539;-78
2022/07/26 11:13:06;;;;;;;6.38;1.05;;;;;;;-145.69;45.31;70306.13;5052900;28;20249;-78
2022/07/26 11:15:35;;;;;;;1.27;0.88;;;;;;;-145.69;43.73;70320.06;5052910;28;20583;-81
2022/07/26 11:18:07;;;;;;;2.05;0.90;;;;;;;-145.69;42.90;70264.34;5052877;28;20207;-77
2022/07/26 11:20:33;;;;;;;2.92;1.02;;;;;;;-145.69;44.47;70216.63;5052680;28;20209;-78
2022/07/26 11:23:00;;;;;;;2.25;0.90;;;;;;;-145.69;41.79;70196.72;5052901;28;20203;-78